Terminal Aerodrome Forecast
Issued by NWS

Home | Current Version | Previous Version | Graphics & Text | Print | Product List | Glossary On
Versions: 1 2 3 4 5 6 7 8 9 10 11 12 13 14 15 16 17 18 19 20 21 22 23 24
000
FTUS41 KCLE 130500
TAFFDY
TAF
KFDY 130539Z 1306/1406 18010KT P6SM BKN070 WS020/22040KT
     FM131300 21020G30KT P6SM BKN045
     FM132100 21018G28KT P6SM SCT045 BKN200=

USA.gov is the U.S. government's official web portal to all federal, state and local government web resources and services.